Temp: 3.0°C   Baro: 1029.4mb
  Wind: 2.9mph   Dir: ENE (66°)
  Rain: 0.0mm (0.0mm/hr)
  Solar: 0W/m2  Hum: 81%
 
Bath Spa Weather Station Historical Data
Daily Summary for February 23, 2021 Units:  English    Metric   Both
Daily Weekly Monthly Yearly Custom
  High: Low: Average:
Temperature: 56.3 °F 42.1 °F 50.8 °F
Dew Point: 49.8 °F 40.3 °F 45.8 °F
Humidity: 91% 71.8% 81%
Wind Speed: 23mph 0mph 9.1mph
Wind Gust: 45mph - -
Wind- - SSW
Pressure: 30.15 in 30.09 in -
Precipitation: 0.01 in    
Historical Graphs
 
 
Tabular Data for February 23, 2021
Time Temperature Dew Point Pressure Wind Wind Speed Wind Gust Humidity Rainfall Rate (Hourly) solar
00:04 42.3 °F 40.6 °F 30.14 in WNW 3.3 mph 5 mph 91% 0.00 in 0 W/m2
00:09 42.3 °F 40.6 °F 30.14 in WNW 2.9 mph 6 mph 91% 0.00 in 0 W/m2
00:14 42.3 °F 40.5 °F 30.15 in WNW 2.8 mph 6 mph 90.4% 0.00 in 0 W/m2
00:19 42.4 °F 40.6 °F 30.15 in WNW 2.9 mph 6 mph 90% 0.00 in 0 W/m2
00:24 42.4 °F 40.6 °F 30.15 in WNW 1.8 mph 4 mph 90% 0.00 in 0 W/m2
00:29 42.3 °F 40.5 °F 30.14 in WNW 1.7 mph 5 mph 90% 0.00 in 0 W/m2
00:34 42.3 °F 40.5 °F 30.15 in WNW 2.1 mph 6 mph 90% 0.00 in 0 W/m2
00:39 42.3 °F 40.5 °F 30.15 in Calm   3 mph 90% 0.00 in 0 W/m2
00:44 42.3 °F 40.5 °F 30.15 in WNW 1.2 mph 4 mph 90% 0.00 in 0 W/m2
00:49 42.3 °F 40.5 °F 30.15 in WNW 1.2 mph 4 mph 90% 0.00 in 0 W/m2
00:54 42.1 °F 40.3 °F 30.15 in WNW 0.2 mph 3 mph 90% 0.00 in 0 W/m2
00:59 42.1 °F 40.3 °F 30.14 in Calm   1 mph 90% 0.00 in 0 W/m2
01:04 42.1 °F 40.3 °F 30.14 in WNW 1.6 mph 4 mph 90% 0.00 in 0 W/m2
01:09 42.2 °F 40.4 °F 30.14 in WNW 2.9 mph 6 mph 90% 0.00 in 0 W/m2
01:14 42.6 °F 40.8 °F 30.14 in South 3.9 mph 10 mph 90% 0.00 in 0 W/m2
01:24 43.5 °F 41.5 °F 30.14 in South 5.2 mph 10 mph 89.6% 0.00 in 0 W/m2
01:29 43.8 °F 41.6 °F 30.14 in South 4.4 mph 10 mph 89% 0.00 in 0 W/m2
01:34 44 °F 41.7 °F 30.14 in South 5.7 mph 8 mph 88.8% 0.00 in 0 W/m2
01:39 44.3 °F 41.9 °F 30.14 in South 5.6 mph 12 mph 88.2% 0.00 in 0 W/m2
01:44 44.4 °F 41.9 °F 30.14 in South 4.6 mph 7 mph 88% 0.00 in 0 W/m2
01:49 44.3 °F 41.8 °F 30.14 in South 3.5 mph 8 mph 88% 0.00 in 0 W/m2
01:54 44.2 °F 41.6 °F 30.14 in South 3.8 mph 6 mph 88% 0.00 in 0 W/m2
01:59 44.1 °F 41.5 °F 30.14 in South 3 mph 7 mph 88% 0.00 in 0 W/m2
02:04 44.1 °F 41.5 °F 30.15 in South 3.1 mph 8 mph 88% 0.00 in 0 W/m2
02:09 44 °F 41.5 °F 30.14 in South 1 mph 6 mph 88% 0.00 in 0 W/m2
02:14 43.9 °F 41.4 °F 30.14 in South 2.5 mph 6 mph 88% 0.00 in 0 W/m2
02:19 43.9 °F 41.4 °F 30.14 in South 2.5 mph 6 mph 88% 0.00 in 0 W/m2
02:24 43.9 °F 41.4 °F 30.14 in SSE 4 mph 7 mph 88% 0.00 in 0 W/m2
02:29 44 °F 41.5 °F 30.14 in SSE 3.8 mph 7 mph 88% 0.00 in 0 W/m2
02:34 44.1 °F 41.5 °F 30.14 in SSE 2.8 mph 6 mph 88% 0.00 in 0 W/m2
02:39 44.2 °F 41.7 °F 30.14 in South 4.8 mph 9 mph 88% 0.00 in 0 W/m2
02:44 44.2 °F 41.7 °F 30.14 in SSE 4.9 mph 8 mph 88% 0.00 in 0 W/m2
02:49 44.2 °F 41.7 °F 30.14 in SSE 4.2 mph 8 mph 88% 0.00 in 0 W/m2
02:54 44.2 °F 41.7 °F 30.14 in SSE 4.8 mph 8 mph 88% 0.00 in 0 W/m2
02:59 44.2 °F 41.6 °F 30.14 in SSE 4.6 mph 8 mph 88% 0.00 in 0 W/m2
03:04 44.2 °F 41.7 °F 30.15 in South 1.8 mph 8 mph 88% 0.00 in 0 W/m2
03:09 44.3 °F 41.8 °F 30.15 in South 5 mph 10 mph 88% 0.00 in 0 W/m2
03:14 44.4 °F 41.9 °F 30.15 in South 4.3 mph 9 mph 88% 0.00 in 0 W/m2
03:19 44.6 °F 42.1 °F 30.14 in South 5.8 mph 10 mph 88% 0.00 in 0 W/m2
03:24 44.5 °F 42.2 °F 30.14 in SSE 5 mph 12 mph 88.6% 0.00 in 0 W/m2
03:29 44.7 °F 42.5 °F 30.13 in SSE 4.5 mph 10 mph 89% 0.00 in 0 W/m2
03:34 44.8 °F 42.6 °F 30.13 in SSE 6 mph 11 mph 89% 0.00 in 0 W/m2
03:39 45 °F 42.8 °F 30.12 in SSE 4.9 mph 12 mph 89% 0.00 in 0 W/m2
03:44 45 °F 42.8 °F 30.12 in SSE 4.8 mph 12 mph 89% 0.00 in 0 W/m2
03:49 45 °F 42.8 °F 30.12 in SSE 5.8 mph 12 mph 89% 0.00 in 0 W/m2
03:54 45.1 °F 42.9 °F 30.12 in SSE 2.8 mph 8 mph 89% 0.00 in 0 W/m2
03:59 45 °F 42.8 °F 30.11 in SSE 2.5 mph 7 mph 89% 0.00 in 0 W/m2
04:04 45 °F 42.8 °F 30.12 in SE 3.6 mph 8 mph 89% 0.00 in 0 W/m2
04:09 45.1 °F 43 °F 30.12 in SE 5.5 mph 9 mph 89% 0.00 in 0 W/m2
04:14 45.3 °F 43.2 °F 30.12 in South 5.6 mph 12 mph 89.2% 0.00 in 0 W/m2
04:19 45.3 °F 43.2 °F 30.12 in South 4 mph 12 mph 89% 0.00 in 0 W/m2
04:24 45.3 °F 43.2 °F 30.12 in SSE 4.3 mph 7 mph 89% 0.00 in 0 W/m2
04:29 45.2 °F 43.1 °F 30.11 in SSE 2.4 mph 7 mph 89% 0.00 in 0 W/m2
04:34 45.1 °F 43 °F 30.11 in SSE 4.8 mph 13 mph 89% 0.00 in 0 W/m2
04:39 45.2 °F 43.1 °F 30.11 in South 5 mph 10 mph 89% 0.00 in 0 W/m2
04:44 45.3 °F 43.2 °F 30.11 in SSE 5.4 mph 12 mph 89% 0.00 in 0 W/m2
04:49 45.4 °F 43.1 °F 30.11 in South 2.8 mph 8 mph 88.6% 0.00 in 0 W/m2
04:54 45.3 °F 42.8 °F 30.11 in South 5.3 mph 8 mph 88% 0.00 in 0 W/m2
04:59 45.5 °F 43 °F 30.11 in South 4.6 mph 14 mph 88% 0.00 in 0 W/m2
05:04 45.5 °F 43 °F 30.11 in South 5.1 mph 14 mph 88% 0.00 in 0 W/m2
05:09 45.6 °F 42.9 °F 30.11 in SSE 4.9 mph 10 mph 87.2% 0.00 in 0 W/m2
05:14 45.7 °F 43 °F 30.11 in SSE 5.3 mph 12 mph 87% 0.00 in 0 W/m2
05:19 45.8 °F 42.9 °F 30.11 in SSE 5.4 mph 12 mph 86.4% 0.00 in 0 W/m2
05:24 45.9 °F 42.8 °F 30.11 in SSE 3.6 mph 9 mph 86% 0.00 in 0 W/m2
05:29 46 °F 43 °F 30.11 in SSE 4.2 mph 11 mph 86% 0.00 in 0 W/m2
05:34 46.1 °F 42.7 °F 30.12 in SSE 2.6 mph 8 mph 85% 0.00 in 0 W/m2
05:39 46 °F 42.6 °F 30.11 in SE 2.6 mph 5 mph 85% 0.00 in 0 W/m2
05:44 46.1 °F 42.6 °F 30.12 in SSE 5.7 mph 11 mph 84.2% 0.00 in 0 W/m2
05:49 46.2 °F 42.6 °F 30.12 in SE 4.1 mph 9 mph 84% 0.00 in 0 W/m2
05:54 46.5 °F 42.5 °F 30.12 in SE 4.2 mph 9 mph 83% 0.00 in 0 W/m2
05:59 46.6 °F 42.6 °F 30.11 in SSE 3.3 mph 8 mph 83% 0.00 in 0 W/m2
06:04 46.6 °F 42.6 °F 30.11 in SSE 4.1 mph 10 mph 83% 0.00 in 0 W/m2
06:09 46.7 °F 42.7 °F 30.11 in SSE 5.9 mph 12 mph 83% 0.00 in 0 W/m2
06:14 46.6 °F 42.6 °F 30.11 in SSE 4 mph 9 mph 83% 0.00 in 0 W/m2
06:19 46.6 °F 42.6 °F 30.11 in SSE 5.4 mph 10 mph 83% 0.00 in 0 W/m2
06:24 46.6 °F 42.6 °F 30.11 in SSE 3.3 mph 10 mph 83% 0.00 in 0 W/m2
06:29 46.6 °F 42.7 °F 30.11 in South 4.9 mph 11 mph 83.4% 0.00 in 0 W/m2
06:34 46.6 °F 42.8 °F 30.11 in South 5.1 mph 11 mph 84% 0.00 in 0 W/m2
06:39 46.6 °F 42.8 °F 30.11 in SSE 8.6 mph 16 mph 84% 0.00 in 0 W/m2
06:44 46.5 °F 42.8 °F 30.10 in SSE 7.6 mph 12 mph 84% 0.00 in 0 W/m2
06:49 46.4 °F 42.8 °F 30.10 in SSE 8.8 mph 14 mph 84% 0.00 in 0 W/m2
06:54 46.4 °F 42.8 °F 30.10 in SSE 6.5 mph 14 mph 84% 0.01 in 0 W/m2
06:59 46.4 °F 42.8 °F 30.10 in South 7.4 mph 13 mph 84% 0.01 in 0 W/m2
07:04 46.2 °F 42.6 °F 30.09 in SSE 7.8 mph 17 mph 84% 0.01 in 0 W/m2
07:09 46.2 °F 42.7 °F 30.09 in SE 7.2 mph 15 mph 84.6% 0.01 in 0 W/m2
07:14 46.2 °F 42.8 °F 30.09 in SSE 9.8 mph 20 mph 85% 0.01 in 5 W/m2
07:19 46.1 °F 42.7 °F 30.09 in SE 7.2 mph 13 mph 85% 0.01 in 11 W/m2
07:24 46 °F 42.9 °F 30.09 in SE 9.6 mph 20 mph 85.8% 0.01 in 16 W/m2
07:29 46 °F 43 °F 30.10 in SSE 6.3 mph 13 mph 86% 0.01 in 19 W/m2
07:34 46 °F 43 °F 30.10 in SSE 8.4 mph 19 mph 86% 0.01 in 23 W/m2
07:39 46 °F 43 °F 30.10 in South 8.4 mph 14 mph 86% 0.01 in 23 W/m2
07:44 46.1 °F 43.1 °F 30.11 in South 11 mph 18 mph 86% 0.01 in 23 W/m2
07:49 46.2 °F 43.2 °F 30.11 in South 9 mph 19 mph 86% 0.01 in 33 W/m2
07:54 46.3 °F 43.3 °F 30.12 in South 8 mph 17 mph 86% 0.01 in 35 W/m2
07:59 46.3 °F 43.3 °F 30.12 in South 7.4 mph 11 mph 86% 0.00 in 39 W/m2
08:04 46.4 °F 43.3 °F 30.12 in South 5 mph 16 mph 86% 0.00 in 42 W/m2
08:09 46.6 °F 43.3 °F 30.12 in South 6.8 mph 11 mph 85.4% 0.00 in 42 W/m2
08:14 46.8 °F 43.3 °F 30.13 in SSW 6.4 mph 11 mph 85% 0.00 in 42 W/m2
08:19 46.8 °F 43.3 °F 30.12 in South 9.2 mph 14 mph 85% 0.00 in 54 W/m2
08:24 46.8 °F 43.3 °F 30.12 in South 5.2 mph 17 mph 85% 0.00 in 67 W/m2
08:29 46.8 °F 43.3 °F 30.13 in South 7.6 mph 17 mph 85% 0.00 in 70 W/m2
08:34 46.9 °F 43.5 °F 30.13 in SSW 8.8 mph 15 mph 85% 0.00 in 67 W/m2
08:39 46.9 °F 43.5 °F 30.13 in SSW 6.3 mph 13 mph 85% 0.00 in 65 W/m2
08:44 47 °F 43.6 °F 30.12 in South 8.4 mph 15 mph 85% 0.00 in 60 W/m2
08:49 46.9 °F 43.5 °F 30.12 in SSE 6.2 mph 15 mph 85% 0.00 in 60 W/m2
08:54 47 °F 43.6 °F 30.12 in South 7.4 mph 14 mph 85% 0.00 in 49 W/m2
08:59 47.1 °F 43.7 °F 30.12 in South 7 mph 14 mph 85% 0.00 in 62 W/m2
09:04 47.1 °F 43.7 °F 30.12 in SSE 7.8 mph 12 mph 85% 0.00 in 74 W/m2
09:09 47.2 °F 43.8 °F 30.12 in SSE 6.8 mph 16 mph 85% 0.00 in 90 W/m2
09:14 47.5 °F 44.1 °F 30.13 in SSE 3.2 mph 8 mph 85% 0.00 in 88 W/m2
09:19 47.5 °F 44.1 °F 30.13 in South 6.8 mph 20 mph 85% 0.00 in 174 W/m2
09:24 47.8 °F 44.1 °F 30.13 in SSE 6.6 mph 20 mph 84% 0.00 in 153 W/m2
09:29 48.2 °F 44.4 °F 30.12 in SSE 4.9 mph 9 mph 84% 0.00 in 239 W/m2
09:34 48.7 °F 44.9 °F 30.12 in South 7.8 mph 16 mph 83.8% 0.00 in 281 W/m2
09:39 48.9 °F 44.9 °F 30.12 in South 8.8 mph 15 mph 83.2% 0.00 in 302 W/m2
09:44 49.5 °F 45.5 °F 30.12 in SSW 9.9 mph 17 mph 83.4% 0.00 in 311 W/m2
09:49 50 °F 45.8 °F 30.12 in SSW 5.6 mph 18 mph 82.8% 0.00 in 302 W/m2
09:54 50.4 °F 46.1 °F 30.12 in South 5 mph 13 mph 82% 0.00 in 267 W/m2
09:59 50.7 °F 46.1 °F 30.12 in SSE 9.4 mph 16 mph 81.4% 0.00 in 271 W/m2
10:04 50.7 °F 46 °F 30.12 in South 8 mph 16 mph 81% 0.00 in 290 W/m2
10:09 50.8 °F 46.1 °F 30.11 in South 11.4 mph 17 mph 81% 0.00 in 299 W/m2
10:14 50.8 °F 45.9 °F 30.11 in SSE 7.6 mph 18 mph 80.4% 0.00 in 297 W/m2
10:19 51.1 °F 46.2 °F 30.11 in South 10.3 mph 21 mph 80.6% 0.00 in 308 W/m2
10:24 51.3 °F 46.3 °F 30.11 in South 9.2 mph 21 mph 80.2% 0.00 in 297 W/m2
10:29 51.3 °F 46.4 °F 30.11 in SSE 8.4 mph 17 mph 80.4% 0.00 in 311 W/m2
10:34 51.6 °F 46.6 °F 30.11 in SSE 5.7 mph 19 mph 80% 0.00 in 315 W/m2
10:39 51.7 °F 46.7 °F 30.11 in SSE 8.4 mph 12 mph 80% 0.00 in 338 W/m2
10:44 52 °F 46.9 °F 30.10 in SSE 7.2 mph 13 mph 80% 0.00 in 373 W/m2
10:49 51.8 °F 46.8 °F 30.10 in SSE 10.2 mph 17 mph 80% 0.00 in 274 W/m2
10:54 52.1 °F 47 °F 30.10 in SSE 7.4 mph 17 mph 80% 0.00 in 302 W/m2
10:59 52.3 °F 47 °F 30.10 in South 7.8 mph 14 mph 79.2% 0.00 in 216 W/m2
11:04 52.5 °F 47.1 °F 30.10 in SSW 10 mph 17 mph 79% 0.00 in 188 W/m2
11:09 52.7 °F 47.1 °F 30.10 in South 8.8 mph 20 mph 78.6% 0.00 in 188 W/m2
11:14 52.5 °F 46.8 °F 30.11 in South 9 mph 18 mph 78% 0.00 in 160 W/m2
11:19 52.8 °F 47 °F 30.11 in SSW 6.4 mph 19 mph 78% 0.00 in 125 W/m2
11:24 52.7 °F 46.9 °F 30.11 in SSW 5.8 mph 13 mph 78% 0.00 in 144 W/m2
11:29 52.8 °F 47 °F 30.11 in South 8.8 mph 19 mph 77.8% 0.00 in 104 W/m2
11:34 53 °F 46.7 °F 30.11 in SSW 10 mph 21 mph 76.6% 0.00 in 188 W/m2
11:39 53.3 °F 46.7 °F 30.10 in South 12.3 mph 23 mph 75.6% 0.00 in 223 W/m2
11:44 53.6 °F 46.8 °F 30.10 in SSW 13 mph 26 mph 75% 0.00 in 274 W/m2
11:49 53.9 °F 47 °F 30.10 in SSW 14.2 mph 27 mph 75% 0.00 in 295 W/m2
11:54 54.1 °F 46.9 °F 30.10 in SSW 12.1 mph 29 mph 74% 0.00 in 501 W/m2
11:59 54.3 °F 47.1 °F 30.10 in SSW 12.6 mph 29 mph 74% 0.00 in 475 W/m2
12:04 54.6 °F 47.5 °F 30.10 in SSW 10.7 mph 21 mph 74.2% 0.00 in 475 W/m2
12:09 54.8 °F 47.7 °F 30.10 in SSW 10.6 mph 19 mph 74.2% 0.00 in 334 W/m2
12:14 54.9 °F 48 °F 30.10 in SW 10.2 mph 21 mph 75% 0.00 in 371 W/m2
12:19 54.9 °F 48 °F 30.11 in SW 10.6 mph 25 mph 75% 0.00 in 186 W/m2
12:24 54.5 °F 47.7 °F 30.11 in SSW 15.7 mph 28 mph 75% 0.00 in 165 W/m2
12:29 54.4 °F 47.9 °F 30.10 in SSW 8 mph 23 mph 75.8% 0.00 in 297 W/m2
12:34 54.8 °F 48 °F 30.10 in SSW 12.9 mph 29 mph 75.4% 0.00 in 336 W/m2
12:39 54.9 °F 48 °F 30.09 in SW 13.4 mph 29 mph 75% 0.00 in 589 W/m2
12:44 54.9 °F 48.1 °F 30.10 in SW 13.8 mph 32 mph 75.2% 0.00 in 589 W/m2
12:49 55 °F 48.6 °F 30.10 in South 10.4 mph 23 mph 76% 0.00 in 561 W/m2
12:54 55 °F 48.5 °F 30.10 in SSW 15.4 mph 24 mph 75.8% 0.00 in 443 W/m2
12:59 55 °F 48.4 °F 30.10 in SSW 10.6 mph 22 mph 75.6% 0.00 in 577 W/m2
13:04 55.4 °F 48.5 °F 30.10 in SW 13.6 mph 29 mph 74.8% 0.00 in 563 W/m2
13:09 55.7 °F 48.4 °F 30.10 in SW 12.7 mph 23 mph 74% 0.00 in 557 W/m2
13:14 55.7 °F 48.4 °F 30.11 in SSW 16.6 mph 27 mph 74% 0.00 in 515 W/m2
13:19 55.8 °F 48.2 °F 30.10 in SSW 14.4 mph 26 mph 73.4% 0.00 in 527 W/m2
13:24 56 °F 48.4 °F 30.10 in SW 12.8 mph 25 mph 73.4% 0.00 in 517 W/m2
13:29 56 °F 48.3 °F 30.10 in SW 13 mph 23 mph 73% 0.00 in 533 W/m2
13:34 56.3 °F 48.4 °F 30.10 in SW 11.2 mph 25 mph 72.6% 0.00 in 529 W/m2
13:39 55.9 °F 47.9 °F 30.11 in SW 17.4 mph 26 mph 72.2% 0.00 in 483 W/m2
13:44 55.9 °F 47.9 °F 30.10 in SW 23 mph 45 mph 72.4% 0.00 in 485 W/m2
13:49 55.8 °F 47.9 °F 30.11 in SW 20.3 mph 33 mph 72.6% 0.00 in 476 W/m2
13:54 55.9 °F 48.2 °F 30.10 in SW 14.8 mph 37 mph 73% 0.00 in 462 W/m2
13:59 56 °F 48 °F 30.09 in SW 12 mph 28 mph 72.4% 0.00 in 439 W/m2
14:04 55.9 °F 47.9 °F 30.09 in SSW 13.6 mph 34 mph 72.2% 0.00 in 434 W/m2
14:09 56.1 °F 48 °F 30.09 in SW 15.2 mph 30 mph 72% 0.00 in 422 W/m2
14:14 55.9 °F 47.8 °F 30.09 in SW 17.8 mph 31 mph 72% 0.00 in 425 W/m2
14:19 56 °F 47.9 °F 30.09 in SSW 15.3 mph 36 mph 72% 0.00 in 459 W/m2
14:24 56 °F 47.9 °F 30.09 in SW 16.8 mph 35 mph 71.8% 0.00 in 425 W/m2
14:29 55.9 °F 47.8 °F 30.09 in SW 12.8 mph 28 mph 72% 0.00 in 415 W/m2
14:34 55.8 °F 47.8 °F 30.09 in SW 18.2 mph 31 mph 72.4% 0.00 in 399 W/m2
14:39 55.7 °F 48 °F 30.09 in SSW 16.9 mph 34 mph 73% 0.00 in 436 W/m2
14:44 55.4 °F 48 °F 30.09 in SSW 13 mph 37 mph 73.6% 0.00 in 220 W/m2
14:49 55.2 °F 48 °F 30.10 in SSW 14.2 mph 27 mph 74% 0.00 in 160 W/m2
14:54 55 °F 47.8 °F 30.09 in SSW 14.8 mph 30 mph 74% 0.00 in 142 W/m2
14:59 55 °F 47.7 °F 30.09 in SW 11.9 mph 33 mph 73.8% 0.00 in 151 W/m2
15:04 55.1 °F 47.6 °F 30.09 in SSW 18.6 mph 33 mph 73% 0.00 in 225 W/m2
15:09 55.4 °F 47.8 °F 30.09 in South 9.6 mph 29 mph 73% 0.00 in 188 W/m2
15:14 55.3 °F 47.7 °F 30.10 in SSW 13.6 mph 30 mph 72.8% 0.00 in 83 W/m2
15:19 55.3 °F 47.6 °F 30.10 in SSW 11.6 mph 24 mph 72.4% 0.00 in 120 W/m2
15:24 55.4 °F 47.6 °F 30.11 in SW 13 mph 26 mph 72.2% 0.00 in 149 W/m2
15:29 55.4 °F 47.8 °F 30.11 in SSW 12.6 mph 20 mph 73% 0.00 in 79 W/m2
15:34 55.2 °F 47.7 °F 30.11 in SSW 14 mph 27 mph 73% 0.00 in 40 W/m2
15:39 55.2 °F 47.7 °F 30.10 in SSW 11 mph 23 mph 73% 0.00 in 49 W/m2
15:44 55.2 °F 47.7 °F 30.10 in SSW 10.4 mph 23 mph 73% 0.00 in 60 W/m2
15:49 55.2 °F 47.7 °F 30.11 in SSW 14.3 mph 19 mph 73% 0.00 in 56 W/m2
15:54 55.2 °F 48 °F 30.10 in South 16 mph 22 mph 74% 0.00 in 58 W/m2
15:59 55.2 °F 47.9 °F 30.10 in SSW 11.8 mph 24 mph 73.6% 0.00 in 42 W/m2
16:04 55.2 °F 48 °F 30.11 in South 9.8 mph 24 mph 74% 0.00 in 30 W/m2
16:09 55.1 °F 47.9 °F 30.11 in SSW 8.3 mph 19 mph 74% 0.00 in 26 W/m2
16:14 55 °F 47.7 °F 30.10 in South 11.1 mph 26 mph 73.8% 0.00 in 26 W/m2
16:19 55 °F 47.8 °F 30.10 in South 11 mph 20 mph 74% 0.00 in 19 W/m2
16:24 55 °F 47.7 °F 30.10 in SSW 11.4 mph 20 mph 73.8% 0.00 in 25 W/m2
16:29 55 °F 47.5 °F 30.09 in SSW 9.1 mph 19 mph 73% 0.00 in 25 W/m2
16:34 55 °F 47.5 °F 30.09 in SSW 10.8 mph 22 mph 73% 0.00 in 19 W/m2
16:39 55.2 °F 47.7 °F 30.10 in South 11 mph 24 mph 73% 0.00 in 19 W/m2
16:44 55.2 °F 47.7 °F 30.09 in SSW 12.6 mph 23 mph 73% 0.00 in 14 W/m2
16:49 55.4 °F 47.6 °F 30.09 in South 12.6 mph 29 mph 72.6% 0.00 in 12 W/m2
16:54 55.6 °F 47.5 °F 30.09 in SSW 10.6 mph 20 mph 72% 0.00 in 16 W/m2
16:59 55.6 °F 47.5 °F 30.09 in SSW 12 mph 21 mph 72% 0.00 in 19 W/m2
17:04 55.6 °F 47.5 °F 30.09 in South 10.6 mph 22 mph 72% 0.00 in 16 W/m2
17:09 55.6 °F 47.5 °F 30.09 in SSW 10.4 mph 20 mph 72% 0.00 in 12 W/m2
17:14 55.6 °F 47.5 °F 30.10 in SSW 9.1 mph 23 mph 72% 0.00 in 11 W/m2
17:19 55.7 °F 47.6 °F 30.10 in SSW 11 mph 23 mph 72% 0.00 in 11 W/m2
17:24 55.6 °F 47.5 °F 30.10 in South 9.3 mph 20 mph 72% 0.00 in 7 W/m2
17:29 55.6 °F 47.6 °F 30.10 in SSW 9.3 mph 22 mph 72.2% 0.00 in 5 W/m2
17:34 55.4 °F 47.8 °F 30.10 in SSW 10 mph 22 mph 73% 0.00 in 5 W/m2
17:39 55.3 °F 47.7 °F 30.10 in SSW 10.2 mph 20 mph 73% 0.00 in 0 W/m2
17:44 55.1 °F 47.8 °F 30.10 in SSW 9.6 mph 18 mph 73.8% 0.00 in 0 W/m2
17:49 55.1 °F 47.9 °F 30.10 in South 9.2 mph 20 mph 74% 0.00 in 0 W/m2
17:54 55 °F 48.1 °F 30.10 in SSW 9.6 mph 25 mph 74.8% 0.00 in 0 W/m2
17:59 55 °F 48.2 °F 30.10 in SSW 12.2 mph 26 mph 75% 0.00 in 0 W/m2
18:04 55.1 °F 48.4 °F 30.10 in South 11.6 mph 24 mph 75.2% 0.00 in 0 W/m2
18:09 55 °F 48.5 °F 30.09 in South 11.4 mph 24 mph 76% 0.00 in 0 W/m2
18:14 55 °F 48.6 °F 30.09 in South 14.2 mph 26 mph 76% 0.00 in 0 W/m2
18:19 55 °F 48.6 °F 30.09 in South 10 mph 22 mph 76% 0.00 in 0 W/m2
18:24 55.1 °F 48.6 °F 30.10 in South 14.5 mph 22 mph 76% 0.00 in 0 W/m2
18:29 55.2 °F 48.6 °F 30.10 in SSW 11.6 mph 23 mph 75.6% 0.00 in 0 W/m2
18:34 55.2 °F 48.4 °F 30.10 in SW 7.5 mph 23 mph 75% 0.00 in 0 W/m2
18:39 55.5 °F 48.5 °F 30.10 in SSW 10 mph 23 mph 74.4% 0.00 in 0 W/m2
18:44 55.6 °F 48.4 °F 30.10 in SSW 11.8 mph 21 mph 74% 0.00 in 0 W/m2
18:49 55.8 °F 48.4 °F 30.11 in SSW 10.7 mph 25 mph 74% 0.00 in 0 W/m2
18:54 55.8 °F 48.1 °F 30.11 in SSW 13.2 mph 25 mph 73.2% 0.00 in 0 W/m2
18:59 55.8 °F 48 °F 30.11 in SSW 13 mph 34 mph 73% 0.00 in 0 W/m2
19:04 55.8 °F 48 °F 30.11 in SSW 13.2 mph 35 mph 73% 0.00 in 0 W/m2
19:09 55.8 °F 48.4 °F 30.11 in South 14.2 mph 23 mph 74% 0.00 in 0 W/m2
19:14 55.7 °F 48.4 °F 30.11 in SSW 11 mph 24 mph 74% 0.00 in 0 W/m2
19:19 55.6 °F 48.4 °F 30.11 in South 13.1 mph 28 mph 74% 0.00 in 0 W/m2
19:24 55.4 °F 48.6 °F 30.11 in SSW 11 mph 22 mph 75% 0.00 in 0 W/m2
19:29 55.3 °F 48.5 °F 30.11 in South 10.6 mph 22 mph 75% 0.00 in 0 W/m2
19:34 55.2 °F 48.4 °F 30.11 in SSW 16.6 mph 27 mph 75% 0.00 in 0 W/m2
19:39 55.4 °F 48.6 °F 30.11 in SSW 14.6 mph 28 mph 75% 0.00 in 0 W/m2
19:44 55.4 °F 48.8 °F 30.12 in SSW 12.4 mph 19 mph 75.8% 0.00 in 0 W/m2
19:49 55.3 °F 48.8 °F 30.12 in SSW 11.8 mph 28 mph 76% 0.00 in 0 W/m2
19:54 55.3 °F 48.8 °F 30.12 in SSW 10.4 mph 28 mph 76% 0.00 in 0 W/m2
19:59 55.2 °F 48.7 °F 30.13 in SSW 15.2 mph 24 mph 76% 0.00 in 0 W/m2
20:04 55.2 °F 48.7 °F 30.13 in SSW 8.7 mph 21 mph 76% 0.00 in 0 W/m2
20:09 55.1 °F 48.7 °F 30.13 in SW 13.3 mph 25 mph 76% 0.00 in 0 W/m2
20:14 55 °F 48.6 °F 30.13 in SW 10 mph 25 mph 76% 0.00 in 0 W/m2
20:19 54.9 °F 48.5 °F 30.13 in South 14.4 mph 24 mph 76% 0.00 in 0 W/m2
20:24 54.9 °F 48.5 °F 30.13 in SSW 11.3 mph 23 mph 76.4% 0.00 in 0 W/m2
20:29 54.9 °F 48.7 °F 30.13 in SW 14.4 mph 23 mph 77% 0.00 in 0 W/m2
20:34 54.8 °F 48.7 °F 30.13 in SW 10.8 mph 26 mph 77% 0.00 in 0 W/m2
20:39 54.8 °F 48.8 °F 30.13 in SSW 10 mph 22 mph 77.6% 0.00 in 0 W/m2
20:44 54.7 °F 48.8 °F 30.12 in SW 9.6 mph 24 mph 77.8% 0.00 in 0 W/m2
20:49 54.7 °F 48.9 °F 30.13 in SW 12 mph 23 mph 78% 0.00 in 0 W/m2
20:54 54.5 °F 48.7 °F 30.12 in SW 10 mph 22 mph 78% 0.00 in 0 W/m2
20:59 54.6 °F 48.9 °F 30.13 in SSW 10.8 mph 29 mph 78.8% 0.00 in 0 W/m2
21:04 54.7 °F 49.1 °F 30.13 in South 14.9 mph 29 mph 79% 0.00 in 0 W/m2
21:09 54.6 °F 49 °F 30.13 in SSW 13 mph 25 mph 79% 0.00 in 0 W/m2
21:14 54.4 °F 48.8 °F 30.13 in SW 8.6 mph 25 mph 79% 0.00 in 0 W/m2
21:19 54.3 °F 48.7 °F 30.13 in SW 11.5 mph 25 mph 79% 0.00 in 0 W/m2
21:24 54.3 °F 48.7 °F 30.13 in SSW 10.8 mph 27 mph 79% 0.00 in 0 W/m2
21:29 54.2 °F 48.8 °F 30.12 in SW 9.6 mph 25 mph 79.4% 0.00 in 0 W/m2
21:34 54.1 °F 48.9 °F 30.12 in SSW 9.4 mph 17 mph 80% 0.00 in 0 W/m2
21:39 54.1 °F 48.8 °F 30.11 in SW 14.8 mph 25 mph 80% 0.00 in 0 W/m2
21:44 54.1 °F 48.8 °F 30.12 in SSW 9.6 mph 30 mph 80% 0.00 in 0 W/m2
21:49 54.1 °F 48.9 °F 30.11 in South 13.4 mph 34 mph 80% 0.00 in 0 W/m2
21:54 54.1 °F 48.9 °F 30.11 in SSW 12.2 mph 34 mph 80% 0.00 in 0 W/m2
21:59 54.1 °F 48.9 °F 30.11 in South 12.2 mph 21 mph 80% 0.00 in 0 W/m2
22:04 54.1 °F 49 °F 30.11 in SSW 11.4 mph 26 mph 80.4% 0.00 in 0 W/m2
22:09 54.1 °F 48.9 °F 30.11 in SSW 14.8 mph 22 mph 80% 0.00 in 0 W/m2
22:14 54.1 °F 48.9 °F 30.10 in South 14.2 mph 25 mph 80% 0.00 in 0 W/m2
22:19 54.1 °F 49.3 °F 30.11 in SSW 12.6 mph 31 mph 81% 0.00 in 0 W/m2
22:24 54.1 °F 49.3 °F 30.10 in SSW 16.4 mph 30 mph 81% 0.00 in 0 W/m2
22:29 54.1 °F 49.3 °F 30.11 in SSW 14.2 mph 28 mph 81% 0.00 in 0 W/m2
22:34 54 °F 49.2 °F 30.11 in South 13.3 mph 29 mph 81% 0.00 in 0 W/m2
22:39 54 °F 49.1 °F 30.11 in South 13.6 mph 22 mph 81% 0.00 in 0 W/m2
22:44 54 °F 49.3 °F 30.11 in SSW 12.9 mph 22 mph 81.4% 0.00 in 0 W/m2
22:49 54 °F 49.5 °F 30.11 in SW 10.2 mph 29 mph 82% 0.00 in 0 W/m2
22:54 54 °F 49.5 °F 30.11 in SSW 14 mph 28 mph 82% 0.00 in 0 W/m2
22:59 54 °F 49.5 °F 30.11 in South 13 mph 31 mph 82% 0.00 in 0 W/m2
23:04 54 °F 49.5 °F 30.11 in SSW 11.1 mph 31 mph 82% 0.00 in 0 W/m2
23:09 54 °F 49.5 °F 30.10 in SSW 13.1 mph 30 mph 82% 0.00 in 0 W/m2
23:14 54 °F 49.7 °F 30.11 in SSW 12.6 mph 28 mph 82.8% 0.00 in 0 W/m2
23:19 54 °F 49.8 °F 30.11 in South 13.6 mph 27 mph 83% 0.00 in 0 W/m2
23:24 53.8 °F 49.6 °F 30.11 in SSW 11.2 mph 24 mph 83% 0.00 in 0 W/m2
23:29 53.9 °F 49.7 °F 30.11 in SW 15.6 mph 26 mph 83% 0.00 in 0 W/m2
23:34 53.9 °F 49.7 °F 30.11 in SSW 14.4 mph 26 mph 83% 0.00 in 0 W/m2
23:39 53.8 °F 49.6 °F 30.12 in SSW 16.4 mph 27 mph 83% 0.00 in 0 W/m2
23:44 53.8 °F 49.6 °F 30.12 in SW 11.6 mph 23 mph 83% 0.00 in 0 W/m2
23:49 53.8 °F 49.8 °F 30.12 in SSW 11.6 mph 27 mph 83.4% 0.00 in 0 W/m2
23:54 53.5 °F 49.8 °F 30.12 in SSW 14.6 mph 25 mph 84.2% 0.00 in 0 W/m2
23:59 53.1 °F 49.8 °F 30.12 in SSW 9.1 mph 22 mph 85.6% 0.00 in 0 W/m2
Bath Spa Weather
Compliments of Weather Underground - 2 mb